Portada
METAR-TAF:

METAR-TAF

Aeroports :

Nimes, França

latitud: 43-45N, longitud: 004-25E, altitud: 94 m

Observació

L'informe es va fer fa 29 minuts, a les 18:00 UTC
Vent 12 kt del Oest/Nord-Oest, variant entre Oest/Sud-Oest i Nord-Oest
Temperatura 14°C
Humitat 51%
Pressió 1008 hPa
Visibilitat 10 km o més
sense núvols per sota de 1500 mi sense presència de cumulonimbus.

METAR: LFTW 251800Z AUTO 29012KT 250V310 CAVOK 14/04 Q1008 NOSIG

Hora: 20:29 (18:29 UTC)

Pronòstic

L'informe es va fer fa 4 hores i 29 minuts, a les 14:00 UTC
Pronòstic vàlid del 25 a les 15 UTC al 26 a les 15 UTC
Vent 20 kt del Nord-Oest amb ràfegues de 30 kt
Visibilitat 10 km o més
sense núvols per sota de 1500 mi sense presència de cumulonimbus.
Evolucionant progressivament
l' 25 a les 18 UTC al 25 a les 21 UTC
Vent 15 kt del Nord-Oest
Temporalment
l' 26 a les 12 UTC al 26 a les 15 UTC
Vent 15 kt del Nord-Oest amb ràfegues de 30 kt

TAF: LFTW 251400Z 2515/2615 31020G30KT CAVOK BECMG 2518/2521 31015KT TEMPO 2612/2615 31015G30KT

Observacions i pronòstics meteorològics de més de 4000 aeroports (METAR i TAF).

Les estacions disponibles són els punts grocs i vermells al mapa.

Posi el ratolí al punt desitjat per veure el nom de l'estació.

Feu clic per veure les observacions i els pronòstics meteorològics.

Per canviar el mapa: feu clic els botons verds amb una creu de color negre per apropar; al botó verd amb un guió per allunyar la imatge; o en les fletxes verdes per a mapes adjacents.


METAR-TAF: